Time;durP1;ratioP1;P1;durP2;ratioP2;P2;SDS_P1;SDS_P2;PMS_P1;PMS_P2;Temp;Humidity;BMP_temperature;BMP_pressure;BME280_temperature;BME280_humidity;BME280_pressure;Samples;Min_cycle;Max_cycle;Signal;HPM_P1;HPM_P2
2021/01/13 00:01:02;;;;;;;22.30;16.83;;;2.90;99.90;;;;;;4972799;28;20452;-25
2021/01/13 00:03:30;;;;;;;25.10;15.23;;;3.00;99.90;;;;;;4972740;28;20441;-25
2021/01/13 00:05:57;;;;;;;17.43;13.93;;;3.10;99.90;;;;;;4973289;28;20737;-25
2021/01/13 00:08:25;;;;;;;23.67;14.33;;;3.10;99.90;;;;;;4972690;28;20441;-25
2021/01/13 00:10:53;;;;;;;21.37;14.90;;;3.20;99.90;;;;;;4973624;28;20987;-25
2021/01/13 00:13:22;;;;;;;19.17;13.60;;;3.20;99.90;;;;;;4971659;28;20441;-25
2021/01/13 00:15:49;;;;;;;22.87;14.90;;;3.20;99.90;;;;;;4971740;28;20492;-25
2021/01/13 00:18:17;;;;;;;22.00;12.60;;;3.20;99.90;;;;;;4972428;28;20895;-25
2021/01/13 00:20:44;;;;;;;24.27;15.33;;;3.30;99.90;;;;;;4971464;28;20460;-25
2021/01/13 00:23:12;;;;;;;17.00;12.97;;;3.30;99.90;;;;;;4971944;28;20449;-25
2021/01/13 00:25:39;;;;;;;18.00;13.60;;;3.40;99.90;;;;;;4971040;28;20659;-25
2021/01/13 00:28:07;;;;;;;24.97;14.23;;;3.30;99.90;;;;;;4971406;28;20448;-25
2021/01/13 00:30:34;;;;;;;19.13;12.50;;;3.40;99.90;;;;;;4970958;28;20851;-25
2021/01/13 00:33:02;;;;;;;23.83;13.50;;;3.50;99.90;;;;;;4971283;28;20441;-25
2021/01/13 00:35:29;;;;;;;20.43;13.20;;;3.50;99.90;;;;;;4972548;28;20449;-25
2021/01/13 00:37:57;;;;;;;17.37;13.83;;;3.50;99.90;;;;;;4972122;28;20441;-25
2021/01/13 00:40:23;;;;;;;18.07;12.87;;;3.50;99.90;;;;;;4972960;28;20468;-25
2021/01/13 00:42:51;;;;;;;16.87;12.80;;;3.40;99.90;;;;;;4971539;28;20499;-26
2021/01/13 00:45:19;;;;;;;16.90;13.33;;;3.50;99.90;;;;;;4972264;28;20454;-26
2021/01/13 00:47:51;;;;;;;19.80;13.10;;;3.40;99.90;;;;;;4971801;28;20515;-26
2021/01/13 00:50:19;;;;;;;21.50;12.27;;;3.50;99.90;;;;;;4953960;28;20453;-26
2021/01/13 00:52:47;;;;;;;17.20;14.07;;;3.50;99.90;;;;;;4970610;28;20520;-26
2021/01/13 00:55:15;;;;;;;15.10;11.27;;;3.50;99.90;;;;;;4970966;28;20480;-26
2021/01/13 00:57:42;;;;;;;16.60;12.23;;;3.50;99.90;;;;;;4971127;28;20481;-26
2021/01/13 01:00:11;;;;;;;17.33;12.43;;;3.50;99.90;;;;;;4972171;28;20454;-26
2021/01/13 01:02:40;;;;;;;17.10;13.27;;;3.50;99.90;;;;;;4972144;28;20461;-26
2021/01/13 01:05:09;;;;;;;18.57;12.50;;;3.60;99.90;;;;;;4971032;28;20511;-26
2021/01/13 01:07:41;;;;;;;18.67;11.80;;;3.50;99.90;;;;;;4973617;28;20449;-27
2021/01/13 01:10:10;;;;;;;20.47;13.80;;;3.50;99.90;;;;;;4953583;28;20511;-27
2021/01/13 01:12:38;;;;;;;14.50;11.20;;;3.50;99.90;;;;;;4970771;28;20710;-27
2021/01/13 01:15:06;;;;;;;19.63;12.60;;;3.50;99.90;;;;;;4970192;28;20518;-27
2021/01/13 01:17:34;;;;;;;20.60;12.73;;;3.40;99.90;;;;;;4972111;28;20461;-27
2021/01/13 01:20:02;;;;;;;19.80;12.47;;;3.40;99.90;;;;;;4970642;28;20461;-27
2021/01/13 01:22:31;;;;;;;17.50;11.80;;;3.40;99.90;;;;;;4971172;28;20533;-27
2021/01/13 01:24:57;;;;;;;14.70;11.63;;;3.40;99.90;;;;;;4971596;28;20449;-27
2021/01/13 01:27:25;;;;;;;13.13;11.30;;;3.40;99.90;;;;;;4972467;28;20477;-27
2021/01/13 01:29:52;;;;;;;19.77;12.83;;;3.40;99.90;;;;;;4972200;28;20524;-27
2021/01/13 01:32:19;;;;;;;18.10;11.63;;;3.40;99.90;;;;;;4971261;28;20978;-27
2021/01/13 01:34:45;;;;;;;19.37;11.50;;;3.40;99.90;;;;;;4971032;28;20505;-27
2021/01/13 01:37:13;;;;;;;14.03;11.43;;;3.50;99.90;;;;;;4971341;28;20449;-27
2021/01/13 01:39:41;;;;;;;15.17;12.10;;;3.50;99.90;;;;;;4970967;28;20437;-27
2021/01/13 01:42:15;;;;;;;12.10;10.33;;;3.50;99.90;;;;;;4971797;28;20516;-27
2021/01/13 01:44:42;;;;;;;12.63;10.67;;;3.50;99.90;;;;;;4971089;28;20453;-27
2021/01/13 01:47:10;;;;;;;15.20;10.50;;;3.50;99.90;;;;;;4971460;28;20539;-27
2021/01/13 01:49:44;;;;;;;13.40;9.87;;;3.50;99.90;;;;;;4971088;28;20449;-27
2021/01/13 01:52:16;;;;;;;13.70;9.53;;;3.50;99.90;;;;;;4970780;28;20448;-27
2021/01/13 01:54:54;;;;;;;18.23;10.80;;;3.50;99.90;;;;;;4972296;28;20785;-27
2021/01/13 01:57:24;;;;;;;19.70;13.10;;;3.50;99.90;;;;;;4974555;28;20452;-27
2021/01/13 02:00:00;;;;;;;14.23;9.83;;;3.50;99.90;;;;;;4974333;28;20923;-27
2021/01/13 02:02:35;;;;;;;14.17;11.20;;;3.40;99.90;;;;;;4957637;28;20438;-27
2021/01/13 02:05:04;;;;;;;16.50;11.00;;;3.50;99.90;;;;;;4974681;28;20455;-27
2021/01/13 02:07:32;;;;;;;16.43;10.90;;;3.40;99.90;;;;;;4958869;28;20740;-27
2021/01/13 02:10:02;;;;;;;17.67;12.20;;;3.40;99.90;;;;;;4974927;28;20460;-27
2021/01/13 02:12:33;;;;;;;18.50;12.40;;;3.40;99.90;;;;;;4975680;28;20441;-27
2021/01/13 02:15:01;;;;;;;20.70;14.17;;;3.30;99.90;;;;;;4975641;28;20448;-27
2021/01/13 02:17:36;;;;;;;20.80;12.40;;;3.30;99.90;;;;;;4974924;28;20540;-27
2021/01/13 02:20:14;;;;;;;17.93;13.47;;;3.30;99.90;;;;;;4974962;28;20853;-27
2021/01/13 02:22:59;;;;;;;21.37;12.97;;;3.30;99.90;;;;;;4973297;28;20459;-27
2021/01/13 02:26:06;;;;;;;19.23;13.50;;;3.20;99.90;;;;;;4975117;28;20460;-27
2021/01/13 02:29:12;;;;;;;19.77;12.43;;;3.20;99.90;;;;;;4976993;28;20453;-27
2021/01/13 02:31:56;;;;;;;18.80;13.37;;;3.10;99.90;;;;;;4976244;28;20465;-27
2021/01/13 02:34:58;;;;;;;16.50;12.37;;;3.10;99.90;;;;;;4974116;28;20496;-27
2021/01/13 02:38:02;;;;;;;16.77;11.80;;;2.90;99.90;;;;;;4974943;28;20456;-27
2021/01/13 02:40:32;;;;;;;20.03;13.63;;;2.70;99.90;;;;;;4975510;28;20449;-25
2021/01/13 02:43:02;;;;;;;20.97;12.13;;;2.60;99.90;;;;;;4974578;28;21125;-25
2021/01/13 02:45:34;;;;;;;16.33;12.20;;;2.50;99.90;;;;;;4974472;28;20480;-27
2021/01/13 02:48:09;;;;;;;19.77;13.10;;;2.40;99.90;;;;;;4974387;28;20460;-27
2021/01/13 02:50:43;;;;;;;17.33;12.27;;;2.40;99.90;;;;;;4974617;28;20444;-24
2021/01/13 02:53:46;;;;;;;18.90;11.80;;;2.40;99.90;;;;;;4974732;28;20487;-26
2021/01/13 02:56:31;;;;;;;15.13;11.83;;;2.50;99.90;;;;;;4986854;28;20502;-27
2021/01/13 02:59:06;;;;;;;17.10;11.30;;;2.50;99.90;;;;;;4994420;28;20445;-24
2021/01/13 03:01:38;;;;;;;15.73;11.10;;;2.50;99.90;;;;;;4994099;28;20478;-26
2021/01/13 03:04:07;;;;;;;11.77;10.13;;;2.50;99.90;;;;;;4994316;28;20455;-27
2021/01/13 03:06:38;;;;;;;18.20;13.10;;;2.40;99.90;;;;;;4993619;28;20472;-26
2021/01/13 03:09:08;;;;;;;18.73;12.37;;;2.40;99.90;;;;;;4993771;28;20563;-26
2021/01/13 03:11:36;;;;;;;17.30;11.83;;;2.30;99.90;;;;;;4993753;28;20546;-26
2021/01/13 03:14:21;;;;;;;18.03;12.47;;;2.30;99.90;;;;;;4994279;28;21045;-26
2021/01/13 03:17:10;;;;;;;16.10;11.60;;;2.30;99.90;;;;;;4993570;28;20467;-26
2021/01/13 03:20:01;;;;;;;15.47;12.10;;;2.20;99.90;;;;;;4991925;28;20454;-26
2021/01/13 03:22:36;;;;;;;20.93;11.63;;;2.20;99.90;;;;;;4975200;28;20566;-26
2021/01/13 03:25:05;;;;;;;22.20;12.27;;;2.20;99.90;;;;;;4993712;28;20459;-26
2021/01/13 03:27:34;;;;;;;17.27;11.53;;;2.30;99.90;;;;;;4993457;28;20768;-26
2021/01/13 03:30:05;;;;;;;15.27;10.20;;;2.30;99.90;;;;;;4993106;28;20540;-26
2021/01/13 03:32:46;;;;;;;15.00;11.60;;;2.30;99.90;;;;;;4993363;28;20448;-26
2021/01/13 03:35:19;;;;;;;18.40;12.97;;;2.20;99.90;;;;;;4993859;28;20475;-26
2021/01/13 03:37:59;;;;;;;16.20;12.20;;;2.30;99.90;;;;;;4991908;28;20437;-27
2021/01/13 03:40:29;;;;;;;16.50;11.37;;;2.20;99.90;;;;;;4992640;28;20845;-26
2021/01/13 03:42:57;;;;;;;19.53;10.00;;;2.10;99.90;;;;;;4992165;28;20898;-26
2021/01/13 03:45:32;;;;;;;14.97;10.73;;;2.10;99.90;;;;;;4990552;28;20523;-27
2021/01/13 03:48:10;;;;;;;14.37;10.80;;;2.10;99.90;;;;;;4991935;28;20464;-26
2021/01/13 03:50:40;;;;;;;13.90;11.67;;;2.10;99.90;;;;;;4992322;28;20870;-26
2021/01/13 03:53:10;;;;;;;11.33;10.10;;;2.10;99.90;;;;;;4992319;28;20476;-26
2021/01/13 03:55:38;;;;;;;16.87;11.13;;;2.10;99.90;;;;;;4991915;28;20440;-26
2021/01/13 03:58:39;;;;;;;14.27;10.93;;;2.00;99.90;;;;;;4991807;28;20436;-27
2021/01/13 04:01:34;;;;;;;11.97;10.70;;;2.00;99.90;;;;;;4989290;28;20479;-26
2021/01/13 04:04:12;;;;;;;19.43;10.50;;;1.90;99.90;;;;;;4991070;28;20521;-26
2021/01/13 04:06:42;;;;;;;17.23;12.43;;;2.00;99.90;;;;;;4990275;28;20518;-26
2021/01/13 04:09:11;;;;;;;16.30;11.93;;;2.00;99.90;;;;;;4990209;28;20455;-26
2021/01/13 04:11:38;;;;;;;19.00;12.47;;;2.10;99.90;;;;;;4987939;28;20504;-26
2021/01/13 04:14:10;;;;;;;15.63;11.60;;;2.20;99.90;;;;;;4991256;28;20451;-26
2021/01/13 04:16:38;;;;;;;19.73;12.17;;;2.20;99.90;;;;;;4997153;28;20432;-26
2021/01/13 04:19:09;;;;;;;18.13;11.83;;;2.30;99.90;;;;;;5002469;28;20471;-27
2021/01/13 04:21:36;;;;;;;16.17;12.43;;;2.40;99.90;;;;;;4990950;28;20458;-27
2021/01/13 04:24:06;;;;;;;16.80;12.50;;;2.50;99.90;;;;;;4991060;28;20529;-26
2021/01/13 04:26:33;;;;;;;17.37;13.53;;;2.50;99.90;;;;;;4990658;28;20484;-26
2021/01/13 04:29:01;;;;;;;19.17;12.73;;;2.50;99.90;;;;;;4991554;28;20449;-27
2021/01/13 04:31:28;;;;;;;29.33;13.23;;;2.60;99.90;;;;;;4990681;28;21195;-26
2021/01/13 04:33:56;;;;;;;17.70;12.83;;;2.60;99.90;;;;;;4990563;28;20436;-26
2021/01/13 04:36:25;;;;;;;19.50;12.10;;;2.60;99.90;;;;;;4988306;28;20511;-26
2021/01/13 04:38:57;;;;;;;15.53;11.83;;;2.60;99.90;;;;;;4991285;28;20459;-27
2021/01/13 04:41:29;;;;;;;17.87;12.40;;;2.50;99.90;;;;;;4988090;28;20460;-26
2021/01/13 04:44:00;;;;;;;27.07;15.97;;;2.50;99.90;;;;;;4995295;28;20468;-24
2021/01/13 04:46:30;;;;;;;17.50;11.17;;;2.40;99.90;;;;;;5001886;28;20471;-26
2021/01/13 04:49:09;;;;;;;18.20;11.30;;;2.40;99.90;;;;;;5004251;28;20908;-26
2021/01/13 04:51:39;;;;;;;20.00;12.37;;;2.30;99.90;;;;;;5001129;28;20479;-24
2021/01/13 04:54:11;;;;;;;16.73;13.07;;;2.30;99.90;;;;;;4999913;28;20440;-26
2021/01/13 04:56:51;;;;;;;18.40;12.10;;;2.30;99.90;;;;;;4990673;28;20447;-26
2021/01/13 04:59:51;;;;;;;22.60;11.70;;;2.30;99.90;;;;;;4989579;28;20444;-25
2021/01/13 05:02:36;;;;;;;17.10;12.00;;;2.30;99.90;;;;;;4949572;28;20999;-26
2021/01/13 05:05:07;;;;;;;19.33;12.30;;;2.30;99.90;;;;;;4968546;28;20772;-26
2021/01/13 05:07:38;;;;;;;16.47;12.33;;;2.30;99.90;;;;;;4968890;28;20469;-27
2021/01/13 05:10:11;;;;;;;18.33;11.93;;;2.40;99.90;;;;;;4968320;28;20683;-27
2021/01/13 05:12:57;;;;;;;20.00;11.30;;;2.30;99.90;;;;;;4963972;28;20449;-26
2021/01/13 05:15:26;;;;;;;18.10;12.00;;;2.30;99.90;;;;;;4963955;28;20460;-26
2021/01/13 05:18:06;;;;;;;18.47;13.03;;;2.20;99.90;;;;;;4962968;28;20452;-26
2021/01/13 05:20:35;;;;;;;15.20;11.20;;;2.20;99.90;;;;;;4963735;28;20985;-26
2021/01/13 05:23:04;;;;;;;15.03;12.30;;;2.10;99.90;;;;;;4966146;28;20445;-24
2021/01/13 05:25:48;;;;;;;24.63;13.13;;;2.10;99.90;;;;;;4966975;28;20480;-24
2021/01/13 05:28:17;;;;;;;19.60;12.90;;;2.10;99.90;;;;;;4966889;28;20437;-24
2021/01/13 05:30:45;;;;;;;21.73;13.43;;;2.00;99.90;;;;;;4965084;28;20469;-26
2021/01/13 05:33:15;;;;;;;23.83;16.30;;;1.90;99.90;;;;;;4968570;28;20441;-26
2021/01/13 05:35:45;;;;;;;18.73;13.87;;;1.80;99.90;;;;;;4964172;28;20448;-26
2021/01/13 05:38:14;;;;;;;18.00;13.10;;;1.80;99.90;;;;;;4965556;28;20449;-26
2021/01/13 05:40:47;;;;;;;21.17;13.03;;;1.80;99.90;;;;;;4966482;28;20503;-26
2021/01/13 05:43:14;;;;;;;22.97;15.20;;;1.70;99.90;;;;;;4965669;28;20433;-26
2021/01/13 05:45:42;;;;;;;24.33;14.97;;;1.70;99.90;;;;;;4962478;28;20938;-27
2021/01/13 05:48:21;;;;;;;17.77;12.80;;;1.70;99.90;;;;;;4962034;28;20495;-26
2021/01/13 05:50:51;;;;;;;21.07;15.23;;;1.70;99.90;;;;;;4963322;28;20468;-26
2021/01/13 05:53:18;;;;;;;26.90;15.43;;;1.70;99.90;;;;;;4965370;28;20532;-26
2021/01/13 05:55:50;;;;;;;22.43;14.30;;;1.60;99.90;;;;;;4962558;28;20516;-26
2021/01/13 05:58:22;;;;;;;19.50;13.43;;;1.60;99.90;;;;;;4962697;28;21120;-26
2021/01/13 06:00:52;;;;;;;22.67;13.63;;;1.50;99.90;;;;;;4964856;28;20524;-26
2021/01/13 06:03:23;;;;;;;24.40;14.80;;;1.50;99.90;;;;;;4976212;28;20733;-26
2021/01/13 06:05:55;;;;;;;22.67;14.00;;;1.60;99.90;;;;;;4975445;28;20453;-26
2021/01/13 06:08:27;;;;;;;23.47;15.30;;;1.50;99.90;;;;;;4980199;28;20576;-26
2021/01/13 06:10:59;;;;;;;22.67;14.50;;;1.50;99.90;;;;;;4979487;28;20448;-26
2021/01/13 06:13:30;;;;;;;20.53;12.53;;;1.40;99.90;;;;;;4980016;28;20990;-26
2021/01/13 06:16:02;;;;;;;29.30;13.20;;;1.40;99.90;;;;;;4980296;28;20874;-26
2021/01/13 06:18:32;;;;;;;22.33;13.07;;;1.40;99.90;;;;;;4978183;28;20436;-26
2021/01/13 06:21:08;;;;;;;23.60;12.03;;;1.40;99.90;;;;;;4976360;28;20878;-26
2021/01/13 06:23:42;;;;;;;21.30;11.97;;;1.30;99.90;;;;;;4975882;28;20502;-26
2021/01/13 06:26:09;;;;;;;20.90;12.70;;;1.30;99.90;;;;;;4976432;28;20486;-26
2021/01/13 06:29:39;;;;;;;24.30;14.03;;;1.30;99.90;;;;;;4976739;28;20436;-26
2021/01/13 06:32:17;;;;;;;26.40;17.03;;;1.30;99.90;;;;;;4980123;28;20475;-26
2021/01/13 06:34:56;;;;;;;22.87;15.20;;;1.30;99.90;;;;;;4972468;28;20468;-26
2021/01/13 06:37:31;;;;;;;24.20;16.93;;;1.30;99.90;;;;;;4980165;28;20440;-26
2021/01/13 06:39:58;;;;;;;26.77;18.00;;;1.20;99.90;;;;;;4978025;28;20440;-26
2021/01/13 06:42:29;;;;;;;15.67;13.20;;;1.20;99.90;;;;;;4978137;28;20859;-26
2021/01/13 06:44:56;;;;;;;20.43;14.20;;;1.20;99.90;;;;;;4981643;28;20463;-26
2021/01/13 06:47:24;;;;;;;20.17;13.27;;;1.20;99.90;;;;;;4973918;28;20479;-26
2021/01/13 06:49:51;;;;;;;23.27;14.15;;;1.20;99.90;;;;;;4974012;28;20451;-26
2021/01/13 06:52:31;;;;;;;25.40;14.47;;;1.20;99.90;;;;;;4975575;28;20306;-26
2021/01/13 06:54:59;;;;;;;19.77;14.97;;;1.20;99.90;;;;;;4974516;28;20766;-26
2021/01/13 06:57:26;;;;;;;25.10;15.03;;;1.20;99.90;;;;;;4973786;28;20443;-26
2021/01/13 06:59:53;;;;;;;27.75;18.08;;;1.20;99.90;;;;;;4970165;28;20705;-26
2021/01/13 07:02:30;;;;;;;28.27;17.67;;;1.20;99.90;;;;;;4970147;28;20535;-26
2021/01/13 07:04:56;;;;;;;27.77;15.10;;;1.20;99.90;;;;;;4966215;28;20463;-26
2021/01/13 07:07:25;;;;;;;22.57;15.57;;;1.20;99.90;;;;;;4966874;28;20214;-26
2021/01/13 07:09:52;;;;;;;19.47;13.97;;;1.30;99.90;;;;;;4970284;28;20538;-26
2021/01/13 07:12:20;;;;;;;22.57;14.00;;;1.30;99.90;;;;;;4958886;28;20456;-26
2021/01/13 07:14:51;;;;;;;22.43;15.30;;;1.30;99.90;;;;;;4957115;28;20895;-26
2021/01/13 07:17:19;;;;;;;17.45;13.55;;;1.30;99.90;;;;;;4959283;28;20452;-26
2021/01/13 07:19:47;;;;;;;21.97;14.20;;;1.30;99.90;;;;;;4966000;28;20197;-26
2021/01/13 07:22:15;;;;;;;23.27;14.30;;;1.40;99.90;;;;;;4963672;28;20456;-26
2021/01/13 07:24:43;;;;;;;22.63;14.93;;;1.40;99.90;;;;;;4963642;28;20437;-26
2021/01/13 07:27:12;;;;;;;21.30;14.40;;;1.40;99.90;;;;;;4968063;28;20480;-26
2021/01/13 07:29:38;;;;;;;25.07;14.03;;;1.30;99.90;;;;;;4964428;28;21148;-26
2021/01/13 07:32:07;;;;;;;22.73;14.97;;;1.40;99.90;;;;;;4962720;28;20600;-26
2021/01/13 07:34:35;;;;;;;19.90;13.50;;;1.40;99.90;;;;;;4963920;28;21109;-26
2021/01/13 07:37:06;;;;;;;23.63;13.40;;;1.50;99.90;;;;;;4968388;28;20526;-26
2021/01/13 07:40:10;;;;;;;25.60;15.43;;;1.60;99.90;;;;;;4966245;28;20851;-26
2021/01/13 07:42:39;;;;;;;22.87;15.37;;;1.70;99.90;;;;;;4879801;29;21125;-26
2021/01/13 07:45:09;;;;;;;28.27;15.97;;;1.90;99.90;;;;;;4965812;28;20468;-26
2021/01/13 07:48:12;;;;;;;26.67;15.77;;;2.00;99.90;;;;;;4967588;28;20502;-26
2021/01/13 07:50:41;;;;;;;25.10;14.57;;;2.20;99.90;;;;;;4959274;28;20448;-26
2021/01/13 07:53:11;;;;;;;33.57;18.07;;;2.40;99.90;;;;;;4965225;28;20483;-26
2021/01/13 07:55:43;;;;;;;23.00;16.10;;;2.50;99.90;;;;;;4956342;28;20574;-26
2021/01/13 07:58:20;;;;;;;21.77;15.03;;;2.60;99.90;;;;;;4959530;28;20461;-26
2021/01/13 08:01:00;;;;;;;20.03;14.53;;;2.70;99.90;;;;;;4953474;28;20444;-26
2021/01/13 08:04:19;;;;;;;22.30;14.20;;;2.80;99.90;;;;;;4960299;28;20468;-26
2021/01/13 08:06:48;;;;;;;21.87;14.97;;;2.80;99.90;;;;;;4962097;28;20472;-26
2021/01/13 08:09:18;;;;;;;21.57;14.47;;;2.90;99.90;;;;;;4961133;28;20460;-26
2021/01/13 08:12:33;;;;;;;18.10;14.27;;;2.90;99.90;;;;;;4959501;28;21069;-26
2021/01/13 08:15:43;;;;;;;18.83;14.00;;;2.90;99.90;;;;;;4873313;29;20467;-26
2021/01/13 08:18:55;;;;;;;22.37;16.87;;;3.00;99.90;;;;;;4922880;29;20513;-26
2021/01/13 08:21:26;;;;;;;28.53;18.40;;;3.00;99.90;;;;;;4860101;29;20464;-26
2021/01/13 08:23:59;;;;;;;27.17;19.77;;;3.00;99.90;;;;;;4869201;29;20485;-26
2021/01/13 08:26:29;;;;;;;42.33;21.53;;;3.10;99.90;;;;;;4907631;29;21052;-26
2021/01/13 08:28:58;;;;;;;29.50;19.87;;;3.20;99.90;;;;;;4910784;29;21135;-26
2021/01/13 08:31:31;;;;;;;56.20;22.73;;;3.30;99.90;;;;;;4907316;29;20473;-26
2021/01/13 08:34:07;;;;;;;32.63;19.07;;;3.40;99.90;;;;;;4912590;29;20443;-26
2021/01/13 08:36:36;;;;;;;19.97;13.40;;;3.40;99.90;;;;;;4901444;29;20454;-26
2021/01/13 08:39:17;;;;;;;30.93;23.50;;;3.40;99.90;;;;;;4904351;29;20464;-26
2021/01/13 08:41:45;;;;;;;36.27;25.80;;;3.40;99.90;;;;;;4910770;29;21328;-26
2021/01/13 08:44:16;;;;;;;32.60;26.43;;;3.50;99.90;;;;;;4918602;29;20699;-26
2021/01/13 08:46:50;;;;;;;28.80;18.37;;;3.50;99.90;;;;;;4911960;29;20485;-26
2021/01/13 08:49:22;;;;;;;14.33;11.77;;;3.60;99.90;;;;;;4940133;28;20459;-26
2021/01/13 08:52:17;;;;;;;13.00;11.67;;;3.70;99.90;;;;;;4959105;28;20863;-26
2021/01/13 08:55:10;;;;;;;16.13;11.00;;;3.90;99.90;;;;;;4961463;28;20460;-26
2021/01/13 08:57:54;;;;;;;13.70;12.30;;;4.00;99.90;;;;;;4954855;28;20459;-26
2021/01/13 09:00:25;;;;;;;16.20;11.93;;;4.10;99.90;;;;;;4943209;28;20571;-26
2021/01/13 09:03:07;;;;;;;17.90;10.50;;;4.20;99.90;;;;;;4958842;28;20464;-27
2021/01/13 09:05:36;;;;;;;21.17;11.30;;;4.30;99.90;;;;;;4954248;28;20551;-27
2021/01/13 09:08:06;;;;;;;16.73;11.00;;;4.50;99.90;;;;;;4957533;28;20468;-27
2021/01/13 09:10:48;;;;;;;17.33;12.50;;;4.60;99.90;;;;;;4957713;28;20929;-27
2021/01/13 09:13:35;;;;;;;12.80;9.80;;;4.80;99.90;;;;;;4957905;28;20634;-27
2021/01/13 09:16:33;;;;;;;11.43;10.30;;;4.80;99.90;;;;;;4958032;28;21044;-27
2021/01/13 09:19:10;;;;;;;11.93;9.20;;;4.80;99.90;;;;;;4957616;28;21317;-27
2021/01/13 09:21:42;;;;;;;12.00;10.00;;;4.70;99.90;;;;;;4942465;28;20550;-27
2021/01/13 09:24:16;;;;;;;16.33;10.30;;;4.80;99.90;;;;;;4951881;28;20824;-27
2021/01/13 09:26:51;;;;;;;16.83;8.10;;;4.80;99.90;;;;;;4955291;28;20472;-25
2021/01/13 09:29:19;;;;;;;13.90;9.40;;;4.80;99.90;;;;;;4959558;28;20448;-25
2021/01/13 09:32:10;;;;;;;10.83;8.97;;;4.90;99.90;;;;;;4955855;28;20459;-25
2021/01/13 09:34:39;;;;;;;10.83;9.47;;;4.90;99.90;;;;;;4941125;28;21090;-25
2021/01/13 09:37:07;;;;;;;14.00;12.60;;;4.80;99.90;;;;;;4957083;28;20737;-25
2021/01/13 09:39:37;;;;;;;11.67;10.47;;;4.80;99.90;;;;;;4953342;28;20453;-25
2021/01/13 09:42:06;;;;;;;18.63;11.30;;;4.80;99.90;;;;;;4955082;28;20475;-25
2021/01/13 09:44:36;;;;;;;12.10;10.20;;;4.80;99.90;;;;;;4958509;28;20546;-25
2021/01/13 09:47:23;;;;;;;9.97;8.97;;;4.80;99.90;;;;;;4952598;28;20468;-25
2021/01/13 09:49:53;;;;;;;17.53;9.03;;;4.90;99.90;;;;;;4957488;28;20474;-25
2021/01/13 09:52:21;;;;;;;10.03;8.27;;;5.10;99.90;;;;;;4957890;28;20619;-25
2021/01/13 09:54:50;;;;;;;13.07;9.43;;;5.20;99.90;;;;;;4959173;28;20590;-25
2021/01/13 09:57:19;;;;;;;13.30;11.90;;;5.20;99.90;;;;;;4939183;28;20522;-25
2021/01/13 09:59:59;;;;;;;13.77;12.37;;;5.20;99.90;;;;;;4957716;28;20786;-26
2021/01/13 10:02:28;;;;;;;21.93;12.47;;;5.30;99.90;;;;;;4955080;28;20655;-25
2021/01/13 10:04:57;;;;;;;11.03;8.53;;;5.30;99.90;;;;;;4955237;28;20451;-27
2021/01/13 10:07:30;;;;;;;10.00;8.90;;;5.40;99.90;;;;;;4958773;28;20898;-25
2021/01/13 10:10:01;;;;;;;11.10;9.70;;;5.60;99.90;;;;;;4958438;28;20452;-27
2021/01/13 10:12:41;;;;;;;11.60;9.17;;;5.80;99.90;;;;;;4958936;28;20559;-25
2021/01/13 10:15:09;;;;;;;11.23;8.23;;;6.00;99.90;;;;;;4958982;28;20460;-27
2021/01/13 10:17:39;;;;;;;11.37;8.90;;;6.10;99.90;;;;;;4961590;28;20503;-27
2021/01/13 10:20:16;;;;;;;12.80;9.13;;;6.10;99.90;;;;;;4963382;28;20448;-27
2021/01/13 10:22:47;;;;;;;14.27;9.63;;;6.10;99.90;;;;;;4964036;28;20522;-27
2021/01/13 10:25:25;;;;;;;12.53;9.43;;;6.10;99.90;;;;;;4940251;28;20466;-27
2021/01/13 10:27:53;;;;;;;12.20;10.17;;;6.20;99.90;;;;;;4957854;28;20568;-27
2021/01/13 10:30:22;;;;;;;10.10;8.63;;;6.20;99.90;;;;;;4958910;28;20737;-27
2021/01/13 10:32:53;;;;;;;12.37;10.87;;;6.10;99.90;;;;;;4963076;28;20941;-27
2021/01/13 10:35:36;;;;;;;17.93;10.10;;;6.20;99.90;;;;;;4959968;28;20466;-27
2021/01/13 10:38:05;;;;;;;10.57;9.47;;;6.20;99.90;;;;;;4962605;28;20440;-27
2021/01/13 10:40:32;;;;;;;11.07;9.97;;;6.20;99.90;;;;;;4956819;28;20570;-27
2021/01/13 10:43:00;;;;;;;9.13;8.33;;;6.20;99.90;;;;;;4957297;28;21115;-27
2021/01/13 10:45:32;;;;;;;11.03;8.80;;;6.10;99.90;;;;;;4962617;28;20452;-27
2021/01/13 10:48:06;;;;;;;15.63;8.97;;;6.00;99.90;;;;;;4963970;28;20490;-26
2021/01/13 10:50:43;;;;;;;10.47;8.93;;;5.90;99.90;;;;;;4963083;28;20443;-26
2021/01/13 10:53:12;;;;;;;9.20;8.20;;;5.80;99.90;;;;;;4963493;28;20444;-26
2021/01/13 10:55:44;;;;;;;12.27;10.03;;;5.70;99.90;;;;;;4962257;28;20515;-26
2021/01/13 10:58:16;;;;;;;10.20;9.10;;;5.70;99.90;;;;;;4961273;28;20577;-27
2021/01/13 11:00:45;;;;;;;9.53;8.63;;;5.60;99.90;;;;;;4962006;28;20464;-27
2021/01/13 11:03:14;;;;;;;10.20;8.27;;;5.60;99.90;;;;;;4960035;28;20468;-26
2021/01/13 11:05:45;;;;;;;12.47;9.70;;;5.50;99.90;;;;;;4961206;28;20491;-27
2021/01/13 11:08:15;;;;;;;10.63;9.27;;;5.60;99.90;;;;;;4961483;28;20472;-26
2021/01/13 11:10:42;;;;;;;9.80;8.20;;;5.40;99.90;;;;;;4960874;28;20459;-27
2021/01/13 11:13:12;;;;;;;11.40;9.20;;;5.30;99.90;;;;;;4961230;28;20448;-26
2021/01/13 11:15:40;;;;;;;10.83;9.77;;;5.20;99.90;;;;;;4958016;28;20455;-26
2021/01/13 11:18:13;;;;;;;9.43;8.60;;;5.10;99.90;;;;;;4957391;28;21068;-26
2021/01/13 11:20:39;;;;;;;12.97;10.93;;;5.10;99.90;;;;;;4962210;28;20954;-27
2021/01/13 11:23:09;;;;;;;10.77;9.67;;;5.20;99.90;;;;;;4961759;28;20522;-26
2021/01/13 11:25:39;;;;;;;14.57;9.07;;;5.30;99.90;;;;;;4940376;28;20463;-27
2021/01/13 11:28:10;;;;;;;13.20;8.93;;;5.40;99.90;;;;;;4958892;28;20464;-27
2021/01/13 11:30:43;;;;;;;11.53;9.60;;;5.40;99.90;;;;;;4960884;28;20445;-27
2021/01/13 11:33:13;;;;;;;8.67;7.87;;;5.60;99.90;;;;;;4960944;28;20451;-27
2021/01/13 11:35:45;;;;;;;8.07;7.27;;;5.60;99.90;;;;;;4965498;28;20829;-27
2021/01/13 11:38:56;;;;;;;11.57;7.90;;;5.50;99.90;;;;;;4961957;28;20466;-27
2021/01/13 11:42:09;;;;;;;11.63;7.73;;;5.50;99.90;;;;;;4938717;28;20468;-26
2021/01/13 11:44:51;;;;;;;10.07;8.07;;;5.40;99.90;;;;;;4943001;28;20821;-27
2021/01/13 11:47:20;;;;;;;8.03;7.23;;;5.20;99.90;;;;;;4961094;28;20514;-27
2021/01/13 11:49:53;;;;;;;10.13;8.83;;;5.10;99.90;;;;;;4961216;28;20460;-27
2021/01/13 11:52:22;;;;;;;13.27;7.17;;;5.10;99.90;;;;;;4955869;28;20448;-27
2021/01/13 11:54:51;;;;;;;10.03;9.23;;;5.10;99.90;;;;;;4952996;28;20471;-27
2021/01/13 11:57:28;;;;;;;10.30;7.97;;;5.10;99.90;;;;;;4958885;28;20440;-26
2021/01/13 12:00:15;;;;;;;8.63;7.80;;;4.90;99.90;;;;;;4962195;28;20459;-27
2021/01/13 12:02:45;;;;;;;11.13;10.03;;;4.80;99.90;;;;;;4960604;28;20502;-26
2021/01/13 12:05:23;;;;;;;11.90;8.70;;;4.90;99.90;;;;;;4941761;28;20872;-27
2021/01/13 12:07:57;;;;;;;10.90;7.10;;;5.00;99.90;;;;;;4958448;28;20480;-27
2021/01/13 12:10:29;;;;;;;9.97;9.07;;;5.10;99.90;;;;;;4965989;28;20452;-26
2021/01/13 12:13:09;;;;;;;9.10;8.20;;;5.20;99.90;;;;;;4961421;28;20468;-26
2021/01/13 12:15:52;;;;;;;9.03;6.97;;;5.30;99.90;;;;;;4961840;28;20448;-26
2021/01/13 12:18:21;;;;;;;9.70;7.70;;;5.30;99.90;;;;;;4963362;28;20441;-26
2021/01/13 12:20:48;;;;;;;9.00;7.20;;;5.30;99.90;;;;;;4954495;28;20460;-26
2021/01/13 12:23:19;;;;;;;7.80;7.00;;;5.40;99.90;;;;;;4960315;28;21240;-26
2021/01/13 12:25:47;;;;;;;7.40;6.70;;;5.40;99.90;;;;;;4955813;28;20736;-27
2021/01/13 12:28:14;;;;;;;9.13;6.67;;;5.10;99.90;;;;;;4958206;28;20476;-26
2021/01/13 12:30:56;;;;;;;7.13;6.53;;;5.10;99.90;;;;;;4941206;28;20460;-26
2021/01/13 12:33:23;;;;;;;12.20;7.90;;;5.10;99.90;;;;;;4944055;28;20809;-26
2021/01/13 12:35:52;;;;;;;12.00;7.10;;;5.20;99.90;;;;;;4962407;28;20539;-26
2021/01/13 12:38:36;;;;;;;11.40;9.17;;;5.30;99.90;;;;;;4969746;28;20441;-25
2021/01/13 12:41:04;;;;;;;8.40;6.73;;;5.20;99.90;;;;;;4966832;28;20523;-25
2021/01/13 12:43:35;;;;;;;10.20;7.13;;;5.20;99.90;;;;;;4969658;28;20658;-25
2021/01/13 12:46:03;;;;;;;13.73;8.80;;;5.40;99.90;;;;;;4973139;28;20552;-25
2021/01/13 12:48:30;;;;;;;10.90;7.50;;;5.50;99.90;;;;;;4970691;28;20517;-25
2021/01/13 12:50:57;;;;;;;10.07;7.70;;;5.40;99.90;;;;;;4965655;28;20444;-27
2021/01/13 12:53:23;;;;;;;8.20;7.33;;;5.40;99.90;;;;;;4957421;28;20502;-27
2021/01/13 12:55:50;;;;;;;20.40;8.87;;;5.40;99.90;;;;;;4955620;28;20677;-26
2021/01/13 12:58:17;;;;;;;13.07;9.67;;;5.30;99.90;;;;;;4960838;28;20452;-27
2021/01/13 13:00:44;;;;;;;10.73;7.70;;;5.20;99.90;;;;;;4958686;28;20444;-27
2021/01/13 13:03:11;;;;;;;7.27;6.33;;;5.20;99.90;;;;;;4963135;28;20452;-27
2021/01/13 13:05:38;;;;;;;10.63;8.13;;;5.10;99.90;;;;;;4958143;28;20614;-27
2021/01/13 13:08:06;;;;;;;9.10;6.30;;;5.10;99.90;;;;;;4963781;28;20969;-27
2021/01/13 13:10:34;;;;;;;11.10;6.50;;;5.10;99.90;;;;;;4965327;28;20507;-27
2021/01/13 13:13:01;;;;;;;6.77;6.07;;;5.00;99.90;;;;;;4947296;28;20456;-27